sensor_id;sensor_type;location;lat;lon;timestamp;P1;durP1;ratioP1;P2;durP2;ratioP2
6101;SDS011;3081;50.584;7.032;2024-01-25T00:01:14;11.00;;;3.80;;
6101;SDS011;3081;50.584;7.032;2024-01-25T00:03:41;9.30;;;2.60;;
6101;SDS011;3081;50.584;7.032;2024-01-25T00:06:08;16.10;;;3.50;;
6101;SDS011;3081;50.584;7.032;2024-01-25T00:08:35;10.53;;;2.70;;
6101;SDS011;3081;50.584;7.032;2024-01-25T00:11:02;8.63;;;2.50;;
6101;SDS011;3081;50.584;7.032;2024-01-25T00:13:30;22.43;;;4.77;;
6101;SDS011;3081;50.584;7.032;2024-01-25T00:15:56;10.80;;;4.07;;
6101;SDS011;3081;50.584;7.032;2024-01-25T00:18:25;15.20;;;2.60;;
6101;SDS011;3081;50.584;7.032;2024-01-25T00:20:53;15.00;;;3.67;;
6101;SDS011;3081;50.584;7.032;2024-01-25T00:23:20;16.93;;;3.80;;
6101;SDS011;3081;50.584;7.032;2024-01-25T00:25:47;13.13;;;3.40;;
6101;SDS011;3081;50.584;7.032;2024-01-25T00:28:14;7.10;;;2.10;;
6101;SDS011;3081;50.584;7.032;2024-01-25T00:30:41;13.57;;;2.43;;
6101;SDS011;3081;50.584;7.032;2024-01-25T00:33:08;8.03;;;2.43;;
6101;SDS011;3081;50.584;7.032;2024-01-25T00:35:36;10.60;;;2.57;;
6101;SDS011;3081;50.584;7.032;2024-01-25T00:38:04;17.63;;;3.03;;
6101;SDS011;3081;50.584;7.032;2024-01-25T00:40:32;12.40;;;2.90;;
6101;SDS011;3081;50.584;7.032;2024-01-25T00:42:59;23.03;;;3.77;;
6101;SDS011;3081;50.584;7.032;2024-01-25T00:45:26;6.50;;;3.57;;
6101;SDS011;3081;50.584;7.032;2024-01-25T00:47:54;12.73;;;3.23;;
6101;SDS011;3081;50.584;7.032;2024-01-25T00:50:21;18.17;;;4.43;;
6101;SDS011;3081;50.584;7.032;2024-01-25T00:52:50;12.93;;;3.80;;
6101;SDS011;3081;50.584;7.032;2024-01-25T00:55:18;11.23;;;2.00;;
6101;SDS011;3081;50.584;7.032;2024-01-25T00:57:45;14.00;;;2.23;;
6101;SDS011;3081;50.584;7.032;2024-01-25T01:00:13;27.80;;;4.40;;
6101;SDS011;3081;50.584;7.032;2024-01-25T01:02:43;20.90;;;3.77;;
6101;SDS011;3081;50.584;7.032;2024-01-25T01:05:11;9.73;;;2.43;;
6101;SDS011;3081;50.584;7.032;2024-01-25T01:07:39;8.53;;;1.90;;
6101;SDS011;3081;50.584;7.032;2024-01-25T01:10:08;13.50;;;3.90;;
6101;SDS011;3081;50.584;7.032;2024-01-25T01:12:35;11.83;;;3.07;;
6101;SDS011;3081;50.584;7.032;2024-01-25T01:15:03;12.63;;;3.27;;
6101;SDS011;3081;50.584;7.032;2024-01-25T01:17:30;7.57;;;1.87;;
6101;SDS011;3081;50.584;7.032;2024-01-25T01:19:57;15.63;;;2.70;;
6101;SDS011;3081;50.584;7.032;2024-01-25T01:22:24;15.60;;;3.37;;
6101;SDS011;3081;50.584;7.032;2024-01-25T01:24:51;4.63;;;1.07;;
6101;SDS011;3081;50.584;7.032;2024-01-25T01:27:19;17.00;;;2.80;;
6101;SDS011;3081;50.584;7.032;2024-01-25T01:29:47;16.07;;;2.60;;
6101;SDS011;3081;50.584;7.032;2024-01-25T01:32:14;22.27;;;3.33;;
6101;SDS011;3081;50.584;7.032;2024-01-25T01:34:40;13.43;;;3.10;;
6101;SDS011;3081;50.584;7.032;2024-01-25T01:37:07;6.33;;;1.57;;
6101;SDS011;3081;50.584;7.032;2024-01-25T01:39:34;12.37;;;2.10;;
6101;SDS011;3081;50.584;7.032;2024-01-25T01:42:01;10.43;;;2.93;;
6101;SDS011;3081;50.584;7.032;2024-01-25T01:44:30;17.00;;;2.80;;
6101;SDS011;3081;50.584;7.032;2024-01-25T01:46:57;7.37;;;2.30;;
6101;SDS011;3081;50.584;7.032;2024-01-25T01:49:24;14.60;;;2.20;;
6101;SDS011;3081;50.584;7.032;2024-01-25T01:51:52;9.40;;;2.43;;
6101;SDS011;3081;50.584;7.032;2024-01-25T01:54:19;11.80;;;3.43;;
6101;SDS011;3081;50.584;7.032;2024-01-25T01:56:46;12.13;;;2.73;;
6101;SDS011;3081;50.584;7.032;2024-01-25T01:59:13;7.60;;;2.07;;
6101;SDS011;3081;50.584;7.032;2024-01-25T02:01:43;13.93;;;2.50;;
6101;SDS011;3081;50.584;7.032;2024-01-25T02:04:10;15.57;;;3.23;;
6101;SDS011;3081;50.584;7.032;2024-01-25T02:06:37;12.90;;;2.43;;
6101;SDS011;3081;50.584;7.032;2024-01-25T02:09:05;14.70;;;2.60;;
6101;SDS011;3081;50.584;7.032;2024-01-25T02:11:33;9.43;;;2.33;;
6101;SDS011;3081;50.584;7.032;2024-01-25T02:14:00;16.07;;;2.07;;
6101;SDS011;3081;50.584;7.032;2024-01-25T02:16:26;14.77;;;3.40;;
6101;SDS011;3081;50.584;7.032;2024-01-25T02:18:55;5.13;;;1.23;;
6101;SDS011;3081;50.584;7.032;2024-01-25T02:21:22;10.43;;;2.30;;
6101;SDS011;3081;50.584;7.032;2024-01-25T02:23:51;12.47;;;2.70;;
6101;SDS011;3081;50.584;7.032;2024-01-25T02:26:18;5.53;;;2.27;;
6101;SDS011;3081;50.584;7.032;2024-01-25T02:28:45;13.70;;;4.00;;
6101;SDS011;3081;50.584;7.032;2024-01-25T02:31:12;11.60;;;3.27;;
6101;SDS011;3081;50.584;7.032;2024-01-25T02:33:38;6.07;;;2.37;;
6101;SDS011;3081;50.584;7.032;2024-01-25T02:36:05;17.40;;;2.13;;
6101;SDS011;3081;50.584;7.032;2024-01-25T02:38:32;5.03;;;1.93;;
6101;SDS011;3081;50.584;7.032;2024-01-25T02:41:01;18.03;;;3.60;;
6101;SDS011;3081;50.584;7.032;2024-01-25T02:43:28;14.27;;;3.33;;
6101;SDS011;3081;50.584;7.032;2024-01-25T02:45:55;14.17;;;2.33;;
6101;SDS011;3081;50.584;7.032;2024-01-25T02:48:22;8.83;;;2.20;;
6101;SDS011;3081;50.584;7.032;2024-01-25T02:50:49;13.10;;;3.53;;
6101;SDS011;3081;50.584;7.032;2024-01-25T02:53:16;15.20;;;2.90;;
6101;SDS011;3081;50.584;7.032;2024-01-25T02:55:42;6.43;;;1.37;;
6101;SDS011;3081;50.584;7.032;2024-01-25T02:58:11;12.23;;;2.17;;
6101;SDS011;3081;50.584;7.032;2024-01-25T03:00:38;9.73;;;2.30;;
6101;SDS011;3081;50.584;7.032;2024-01-25T03:03:04;7.03;;;1.70;;
6101;SDS011;3081;50.584;7.032;2024-01-25T03:05:31;17.23;;;2.93;;
6101;SDS011;3081;50.584;7.032;2024-01-25T03:07:59;9.00;;;3.33;;
6101;SDS011;3081;50.584;7.032;2024-01-25T03:10:26;15.17;;;2.70;;
6101;SDS011;3081;50.584;7.032;2024-01-25T03:12:53;10.80;;;2.63;;
6101;SDS011;3081;50.584;7.032;2024-01-25T03:15:22;14.17;;;3.30;;
6101;SDS011;3081;50.584;7.032;2024-01-25T03:17:49;27.23;;;3.20;;
6101;SDS011;3081;50.584;7.032;2024-01-25T03:20:16;10.40;;;3.23;;
6101;SDS011;3081;50.584;7.032;2024-01-25T03:22:43;9.43;;;3.83;;
6101;SDS011;3081;50.584;7.032;2024-01-25T03:25:10;12.90;;;3.20;;
6101;SDS011;3081;50.584;7.032;2024-01-25T03:27:37;6.77;;;2.20;;
6101;SDS011;3081;50.584;7.032;2024-01-25T03:30:04;6.77;;;2.30;;
6101;SDS011;3081;50.584;7.032;2024-01-25T03:32:33;9.93;;;2.23;;
6101;SDS011;3081;50.584;7.032;2024-01-25T03:35:00;10.63;;;2.50;;
6101;SDS011;3081;50.584;7.032;2024-01-25T03:37:27;10.40;;;2.70;;
6101;SDS011;3081;50.584;7.032;2024-01-25T03:39:54;3.37;;;1.37;;
6101;SDS011;3081;50.584;7.032;2024-01-25T03:42:21;8.63;;;2.67;;
6101;SDS011;3081;50.584;7.032;2024-01-25T03:44:48;13.27;;;3.00;;
6101;SDS011;3081;50.584;7.032;2024-01-25T03:47:15;5.73;;;2.70;;
6101;SDS011;3081;50.584;7.032;2024-01-25T03:49:43;18.67;;;3.27;;
6101;SDS011;3081;50.584;7.032;2024-01-25T03:52:11;6.57;;;3.07;;
6101;SDS011;3081;50.584;7.032;2024-01-25T03:54:38;6.10;;;2.70;;
6101;SDS011;3081;50.584;7.032;2024-01-25T03:57:05;8.77;;;2.37;;
6101;SDS011;3081;50.584;7.032;2024-01-25T03:59:31;9.40;;;1.03;;
6101;SDS011;3081;50.584;7.032;2024-01-25T04:01:58;4.27;;;1.77;;
6101;SDS011;3081;50.584;7.032;2024-01-25T04:04:25;27.00;;;3.83;;
6101;SDS011;3081;50.584;7.032;2024-01-25T04:06:53;27.80;;;3.87;;
6101;SDS011;3081;50.584;7.032;2024-01-25T04:09:20;9.37;;;2.00;;
6101;SDS011;3081;50.584;7.032;2024-01-25T04:11:47;12.03;;;2.10;;
6101;SDS011;3081;50.584;7.032;2024-01-25T04:14:14;4.87;;;0.67;;
6101;SDS011;3081;50.584;7.032;2024-01-25T04:16:41;10.37;;;2.10;;
6101;SDS011;3081;50.584;7.032;2024-01-25T04:19:11;17.20;;;3.00;;
6101;SDS011;3081;50.584;7.032;2024-01-25T04:21:38;2.90;;;1.50;;
6101;SDS011;3081;50.584;7.032;2024-01-25T04:24:06;7.37;;;2.03;;
6101;SDS011;3081;50.584;7.032;2024-01-25T04:26:33;11.40;;;2.13;;
6101;SDS011;3081;50.584;7.032;2024-01-25T04:29:00;2.57;;;1.20;;
6101;SDS011;3081;50.584;7.032;2024-01-25T04:31:27;5.90;;;2.10;;
6101;SDS011;3081;50.584;7.032;2024-01-25T04:33:54;11.10;;;2.87;;
6101;SDS011;3081;50.584;7.032;2024-01-25T04:36:21;8.80;;;3.10;;
6101;SDS011;3081;50.584;7.032;2024-01-25T04:38:48;3.87;;;1.73;;
6101;SDS011;3081;50.584;7.032;2024-01-25T04:41:16;6.73;;;2.07;;
6101;SDS011;3081;50.584;7.032;2024-01-25T04:43:43;1.40;;;0.93;;
6101;SDS011;3081;50.584;7.032;2024-01-25T04:46:11;24.97;;;1.90;;
6101;SDS011;3081;50.584;7.032;2024-01-25T04:48:38;1.87;;;0.77;;
6101;SDS011;3081;50.584;7.032;2024-01-25T04:51:05;5.97;;;2.27;;
6101;SDS011;3081;50.584;7.032;2024-01-25T04:53:32;2.10;;;0.67;;
6101;SDS011;3081;50.584;7.032;2024-01-25T04:55:59;18.10;;;3.17;;
6101;SDS011;3081;50.584;7.032;2024-01-25T04:58:27;9.87;;;3.60;;
6101;SDS011;3081;50.584;7.032;2024-01-25T05:00:54;1.67;;;0.97;;
6101;SDS011;3081;50.584;7.032;2024-01-25T05:03:21;9.87;;;2.50;;
6101;SDS011;3081;50.584;7.032;2024-01-25T05:05:48;3.03;;;1.13;;
6101;SDS011;3081;50.584;7.032;2024-01-25T05:08:15;1.90;;;0.80;;
6101;SDS011;3081;50.584;7.032;2024-01-25T05:10:42;6.03;;;1.90;;
6101;SDS011;3081;50.584;7.032;2024-01-25T05:13:09;10.23;;;0.90;;
6101;SDS011;3081;50.584;7.032;2024-01-25T05:15:37;5.43;;;1.53;;
6101;SDS011;3081;50.584;7.032;2024-01-25T05:18:04;1.10;;;0.47;;
6101;SDS011;3081;50.584;7.032;2024-01-25T05:20:32;1.10;;;0.60;;
6101;SDS011;3081;50.584;7.032;2024-01-25T05:23:02;13.30;;;1.47;;
6101;SDS011;3081;50.584;7.032;2024-01-25T05:25:30;2.53;;;1.60;;
6101;SDS011;3081;50.584;7.032;2024-01-25T05:27:57;8.00;;;2.33;;
6101;SDS011;3081;50.584;7.032;2024-01-25T05:30:25;4.63;;;1.97;;
6101;SDS011;3081;50.584;7.032;2024-01-25T05:32:53;1.30;;;0.60;;
6101;SDS011;3081;50.584;7.032;2024-01-25T05:35:20;4.93;;;1.07;;
6101;SDS011;3081;50.584;7.032;2024-01-25T05:37:48;2.03;;;1.07;;
6101;SDS011;3081;50.584;7.032;2024-01-25T05:40:15;4.27;;;2.10;;
6101;SDS011;3081;50.584;7.032;2024-01-25T05:42:42;2.80;;;1.27;;
6101;SDS011;3081;50.584;7.032;2024-01-25T05:45:10;7.20;;;2.43;;
6101;SDS011;3081;50.584;7.032;2024-01-25T05:47:37;1.00;;;0.40;;
6101;SDS011;3081;50.584;7.032;2024-01-25T05:50:06;5.03;;;2.20;;
6101;SDS011;3081;50.584;7.032;2024-01-25T05:52:33;1.00;;;0.40;;
6101;SDS011;3081;50.584;7.032;2024-01-25T05:55:02;14.83;;;2.20;;
6101;SDS011;3081;50.584;7.032;2024-01-25T05:57:29;8.90;;;2.93;;
6101;SDS011;3081;50.584;7.032;2024-01-25T05:59:56;18.20;;;1.50;;
6101;SDS011;3081;50.584;7.032;2024-01-25T06:02:23;5.70;;;1.90;;
6101;SDS011;3081;50.584;7.032;2024-01-25T06:04:50;4.93;;;1.13;;
6101;SDS011;3081;50.584;7.032;2024-01-25T06:07:18;11.50;;;1.40;;
6101;SDS011;3081;50.584;7.032;2024-01-25T06:09:46;2.57;;;2.00;;
6101;SDS011;3081;50.584;7.032;2024-01-25T06:12:13;3.53;;;1.60;;
6101;SDS011;3081;50.584;7.032;2024-01-25T06:14:39;5.20;;;1.70;;
6101;SDS011;3081;50.584;7.032;2024-01-25T06:17:06;7.10;;;1.00;;
6101;SDS011;3081;50.584;7.032;2024-01-25T06:19:33;3.40;;;1.27;;
6101;SDS011;3081;50.584;7.032;2024-01-25T06:22:00;1.53;;;0.93;;
6101;SDS011;3081;50.584;7.032;2024-01-25T06:24:29;3.77;;;0.80;;
6101;SDS011;3081;50.584;7.032;2024-01-25T06:26:56;1.47;;;0.70;;
6101;SDS011;3081;50.584;7.032;2024-01-25T06:29:23;1.10;;;0.40;;
6101;SDS011;3081;50.584;7.032;2024-01-25T06:31:50;18.10;;;4.53;;
6101;SDS011;3081;50.584;7.032;2024-01-25T06:34:17;1.73;;;0.97;;
6101;SDS011;3081;50.584;7.032;2024-01-25T06:36:44;1.37;;;0.60;;
6101;SDS011;3081;50.584;7.032;2024-01-25T06:39:11;4.97;;;1.97;;
6101;SDS011;3081;50.584;7.032;2024-01-25T06:41:39;5.97;;;1.33;;
6101;SDS011;3081;50.584;7.032;2024-01-25T06:44:07;4.33;;;1.20;;
6101;SDS011;3081;50.584;7.032;2024-01-25T06:46:33;4.93;;;2.93;;
6101;SDS011;3081;50.584;7.032;2024-01-25T06:49:00;1.57;;;0.63;;
6101;SDS011;3081;50.584;7.032;2024-01-25T06:51:28;11.57;;;1.53;;
6101;SDS011;3081;50.584;7.032;2024-01-25T06:53:55;2.00;;;1.80;;
6101;SDS011;3081;50.584;7.032;2024-01-25T06:56:22;1.30;;;0.50;;
6101;SDS011;3081;50.584;7.032;2024-01-25T06:58:50;1.00;;;0.37;;
6101;SDS011;3081;50.584;7.032;2024-01-25T07:01:20;1.00;;;0.40;;
6101;SDS011;3081;50.584;7.032;2024-01-25T07:03:47;2.20;;;0.80;;
6101;SDS011;3081;50.584;7.032;2024-01-25T07:06:15;1.40;;;0.70;;
6101;SDS011;3081;50.584;7.032;2024-01-25T07:08:43;20.53;;;2.93;;
6101;SDS011;3081;50.584;7.032;2024-01-25T07:11:10;3.83;;;1.30;;
6101;SDS011;3081;50.584;7.032;2024-01-25T07:13:37;19.37;;;0.93;;
6101;SDS011;3081;50.584;7.032;2024-01-25T07:16:06;7.40;;;1.37;;
6101;SDS011;3081;50.584;7.032;2024-01-25T07:18:32;1.00;;;0.40;;
6101;SDS011;3081;50.584;7.032;2024-01-25T07:20:59;6.10;;;0.70;;
6101;SDS011;3081;50.584;7.032;2024-01-25T07:23:28;2.13;;;1.03;;
6101;SDS011;3081;50.584;7.032;2024-01-25T07:25:55;1.00;;;0.50;;
6101;SDS011;3081;50.584;7.032;2024-01-25T07:28:22;1.40;;;0.70;;
6101;SDS011;3081;50.584;7.032;2024-01-25T07:30:49;1.10;;;0.43;;
6101;SDS011;3081;50.584;7.032;2024-01-25T07:33:17;1.47;;;1.07;;
6101;SDS011;3081;50.584;7.032;2024-01-25T07:35:44;1.00;;;0.30;;
6101;SDS011;3081;50.584;7.032;2024-01-25T07:38:11;1.40;;;0.63;;
6101;SDS011;3081;50.584;7.032;2024-01-25T07:40:38;1.00;;;0.33;;
6101;SDS011;3081;50.584;7.032;2024-01-25T07:43:05;0.85;;;0.38;;
6101;SDS011;3081;50.584;7.032;2024-01-25T07:46:11;1.20;;;0.40;;
6101;SDS011;3081;50.584;7.032;2024-01-25T07:48:40;1.90;;;0.60;;
6101;SDS011;3081;50.584;7.032;2024-01-25T07:51:10;2.00;;;0.50;;
6101;SDS011;3081;50.584;7.032;2024-01-25T07:53:38;15.63;;;14.07;;
6101;SDS011;3081;50.584;7.032;2024-01-25T07:56:06;28.30;;;25.50;;
6101;SDS011;3081;50.584;7.032;2024-01-25T07:58:34;47.80;;;44.07;;
6101;SDS011;3081;50.584;7.032;2024-01-25T08:01:02;153.33;;;140.57;;
6101;SDS011;3081;50.584;7.032;2024-01-25T08:05:58;1316.25;;;999.90;;
6101;SDS011;3081;50.584;7.032;2024-01-25T08:08:25;1194.83;;;999.90;;
6101;SDS011;3081;50.584;7.032;2024-01-25T08:10:52;1213.43;;;999.90;;
6101;SDS011;3081;50.584;7.032;2024-01-25T08:13:19;1093.00;;;985.38;;
6101;SDS011;3081;50.584;7.032;2024-01-25T08:15:45;22.13;;;5.80;;
6101;SDS011;3081;50.584;7.032;2024-01-25T08:18:12;18.83;;;5.05;;
6101;SDS011;3081;50.584;7.032;2024-01-25T08:20:40;31.03;;;6.40;;
6101;SDS011;3081;50.584;7.032;2024-01-25T08:23:07;20.23;;;7.00;;
6101;SDS011;3081;50.584;7.032;2024-01-25T08:25:34;22.77;;;5.50;;
6101;SDS011;3081;50.584;7.032;2024-01-25T08:30:31;30.57;;;6.50;;
6101;SDS011;3081;50.584;7.032;2024-01-25T08:35:04;33.83;;;6.83;;
6101;SDS011;3081;50.584;7.032;2024-01-25T08:37:31;29.07;;;5.90;;
6101;SDS011;3081;50.584;7.032;2024-01-25T08:39:58;30.53;;;5.77;;
6101;SDS011;3081;50.584;7.032;2024-01-25T08:42:25;24.13;;;4.93;;
6101;SDS011;3081;50.584;7.032;2024-01-25T08:44:52;23.93;;;4.90;;
6101;SDS011;3081;50.584;7.032;2024-01-25T08:47:19;26.73;;;4.60;;
6101;SDS011;3081;50.584;7.032;2024-01-25T08:49:46;25.60;;;6.33;;
6101;SDS011;3081;50.584;7.032;2024-01-25T08:52:14;35.17;;;6.70;;
6101;SDS011;3081;50.584;7.032;2024-01-25T08:54:41;32.60;;;5.77;;
6101;SDS011;3081;50.584;7.032;2024-01-25T08:57:08;28.63;;;6.20;;
6101;SDS011;3081;50.584;7.032;2024-01-25T08:59:35;43.83;;;5.97;;
6101;SDS011;3081;50.584;7.032;2024-01-25T09:02:03;23.77;;;5.17;;
6101;SDS011;3081;50.584;7.032;2024-01-25T09:04:31;31.17;;;6.00;;
6101;SDS011;3081;50.584;7.032;2024-01-25T09:06:58;29.70;;;5.63;;
6101;SDS011;3081;50.584;7.032;2024-01-25T09:09:26;28.47;;;5.17;;
6101;SDS011;3081;50.584;7.032;2024-01-25T09:11:53;31.80;;;5.40;;
6101;SDS011;3081;50.584;7.032;2024-01-25T09:14:20;28.03;;;6.03;;
6101;SDS011;3081;50.584;7.032;2024-01-25T09:16:47;32.60;;;6.03;;
6101;SDS011;3081;50.584;7.032;2024-01-25T09:19:14;32.87;;;5.23;;
6101;SDS011;3081;50.584;7.032;2024-01-25T09:21:41;21.17;;;4.13;;
6101;SDS011;3081;50.584;7.032;2024-01-25T09:24:08;37.07;;;6.50;;
6101;SDS011;3081;50.584;7.032;2024-01-25T09:26:36;34.27;;;6.63;;
6101;SDS011;3081;50.584;7.032;2024-01-25T09:29:03;36.33;;;5.87;;
6101;SDS011;3081;50.584;7.032;2024-01-25T09:31:30;38.80;;;5.93;;
6101;SDS011;3081;50.584;7.032;2024-01-25T09:33:57;40.03;;;7.33;;
6101;SDS011;3081;50.584;7.032;2024-01-25T09:36:24;22.23;;;4.80;;
6101;SDS011;3081;50.584;7.032;2024-01-25T09:38:51;31.10;;;6.03;;
6101;SDS011;3081;50.584;7.032;2024-01-25T09:41:18;23.27;;;4.70;;
6101;SDS011;3081;50.584;7.032;2024-01-25T09:43:46;31.73;;;6.13;;
6101;SDS011;3081;50.584;7.032;2024-01-25T09:46:13;27.00;;;4.77;;
6101;SDS011;3081;50.584;7.032;2024-01-25T09:48:41;28.10;;;5.43;;
6101;SDS011;3081;50.584;7.032;2024-01-25T09:51:11;32.00;;;6.00;;
6101;SDS011;3081;50.584;7.032;2024-01-25T09:53:38;38.70;;;6.83;;
6101;SDS011;3081;50.584;7.032;2024-01-25T09:56:06;26.03;;;5.83;;
6101;SDS011;3081;50.584;7.032;2024-01-25T09:58:37;26.23;;;4.90;;
6101;SDS011;3081;50.584;7.032;2024-01-25T10:01:09;23.47;;;4.10;;
6101;SDS011;3081;50.584;7.032;2024-01-25T10:03:37;32.20;;;5.13;;
6101;SDS011;3081;50.584;7.032;2024-01-25T10:06:05;32.00;;;6.37;;
6101;SDS011;3081;50.584;7.032;2024-01-25T10:08:33;34.53;;;5.77;;
6101;SDS011;3081;50.584;7.032;2024-01-25T10:11:00;28.70;;;5.23;;
6101;SDS011;3081;50.584;7.032;2024-01-25T10:13:27;30.10;;;4.70;;
6101;SDS011;3081;50.584;7.032;2024-01-25T10:15:54;29.53;;;6.00;;
6101;SDS011;3081;50.584;7.032;2024-01-25T10:18:23;33.00;;;6.70;;
6101;SDS011;3081;50.584;7.032;2024-01-25T10:20:50;30.37;;;5.53;;
6101;SDS011;3081;50.584;7.032;2024-01-25T10:23:19;37.70;;;6.73;;
6101;SDS011;3081;50.584;7.032;2024-01-25T10:25:46;27.97;;;6.07;;
6101;SDS011;3081;50.584;7.032;2024-01-25T10:28:13;24.57;;;5.70;;
6101;SDS011;3081;50.584;7.032;2024-01-25T10:30:40;25.53;;;5.63;;
6101;SDS011;3081;50.584;7.032;2024-01-25T10:33:06;23.30;;;5.10;;
6101;SDS011;3081;50.584;7.032;2024-01-25T10:35:37;33.37;;;5.57;;
6101;SDS011;3081;50.584;7.032;2024-01-25T10:38:06;29.90;;;5.80;;
6101;SDS011;3081;50.584;7.032;2024-01-25T10:40:33;39.53;;;7.10;;
6101;SDS011;3081;50.584;7.032;2024-01-25T10:43:01;24.27;;;5.10;;
6101;SDS011;3081;50.584;7.032;2024-01-25T10:45:28;46.07;;;6.23;;
6101;SDS011;3081;50.584;7.032;2024-01-25T10:50:28;28.73;;;5.20;;
6101;SDS011;3081;50.584;7.032;2024-01-25T10:52:54;27.33;;;4.93;;
6101;SDS011;3081;50.584;7.032;2024-01-25T10:55:22;27.40;;;4.27;;
6101;SDS011;3081;50.584;7.032;2024-01-25T10:57:51;24.07;;;5.47;;
6101;SDS011;3081;50.584;7.032;2024-01-25T11:00:18;23.37;;;4.70;;
6101;SDS011;3081;50.584;7.032;2024-01-25T11:02:47;25.03;;;4.53;;
6101;SDS011;3081;50.584;7.032;2024-01-25T11:05:16;21.37;;;4.10;;
6101;SDS011;3081;50.584;7.032;2024-01-25T11:07:46;27.97;;;5.13;;
6101;SDS011;3081;50.584;7.032;2024-01-25T11:10:15;24.13;;;5.50;;
6101;SDS011;3081;50.584;7.032;2024-01-25T11:12:46;22.60;;;4.67;;
6101;SDS011;3081;50.584;7.032;2024-01-25T11:15:17;27.27;;;5.23;;
6101;SDS011;3081;50.584;7.032;2024-01-25T11:17:50;21.70;;;4.60;;
6101;SDS011;3081;50.584;7.032;2024-01-25T11:20:19;17.77;;;4.20;;
6101;SDS011;3081;50.584;7.032;2024-01-25T11:22:49;40.67;;;6.13;;
6101;SDS011;3081;50.584;7.032;2024-01-25T11:25:23;24.33;;;5.13;;
6101;SDS011;3081;50.584;7.032;2024-01-25T11:27:52;24.30;;;4.97;;
6101;SDS011;3081;50.584;7.032;2024-01-25T11:30:20;20.37;;;4.63;;
6101;SDS011;3081;50.584;7.032;2024-01-25T11:32:47;35.33;;;5.43;;
6101;SDS011;3081;50.584;7.032;2024-01-25T11:36:56;23.03;;;4.73;;
6101;SDS011;3081;50.584;7.032;2024-01-25T11:39:23;23.67;;;4.13;;
6101;SDS011;3081;50.584;7.032;2024-01-25T11:41:51;26.40;;;4.07;;
6101;SDS011;3081;50.584;7.032;2024-01-25T11:44:18;24.10;;;4.93;;
6101;SDS011;3081;50.584;7.032;2024-01-25T11:46:48;20.47;;;4.47;;
6101;SDS011;3081;50.584;7.032;2024-01-25T11:49:16;21.83;;;4.93;;
6101;SDS011;3081;50.584;7.032;2024-01-25T11:51:43;23.93;;;4.53;;
6101;SDS011;3081;50.584;7.032;2024-01-25T11:54:11;30.10;;;6.10;;
6101;SDS011;3081;50.584;7.032;2024-01-25T11:56:38;29.00;;;6.67;;
6101;SDS011;3081;50.584;7.032;2024-01-25T11:59:07;30.87;;;6.20;;
6101;SDS011;3081;50.584;7.032;2024-01-25T12:01:34;27.00;;;5.67;;
6101;SDS011;3081;50.584;7.032;2024-01-25T12:04:01;24.60;;;5.67;;
6101;SDS011;3081;50.584;7.032;2024-01-25T12:06:30;24.67;;;6.27;;
6101;SDS011;3081;50.584;7.032;2024-01-25T12:09:05;35.53;;;6.43;;
6101;SDS011;3081;50.584;7.032;2024-01-25T12:11:35;24.93;;;5.80;;
6101;SDS011;3081;50.584;7.032;2024-01-25T12:14:03;31.63;;;6.97;;
6101;SDS011;3081;50.584;7.032;2024-01-25T12:16:29;28.10;;;5.60;;
6101;SDS011;3081;50.584;7.032;2024-01-25T12:18:56;34.27;;;6.13;;
6101;SDS011;3081;50.584;7.032;2024-01-25T12:21:24;35.30;;;6.00;;
6101;SDS011;3081;50.584;7.032;2024-01-25T12:23:51;44.97;;;7.43;;
6101;SDS011;3081;50.584;7.032;2024-01-25T12:26:18;26.77;;;5.87;;
6101;SDS011;3081;50.584;7.032;2024-01-25T12:28:47;20.20;;;4.57;;
6101;SDS011;3081;50.584;7.032;2024-01-25T12:31:15;26.43;;;5.93;;
6101;SDS011;3081;50.584;7.032;2024-01-25T12:33:42;26.07;;;6.00;;
6101;SDS011;3081;50.584;7.032;2024-01-25T12:36:09;28.60;;;6.90;;
6101;SDS011;3081;50.584;7.032;2024-01-25T12:38:37;31.67;;;5.97;;
6101;SDS011;3081;50.584;7.032;2024-01-25T12:41:04;23.53;;;5.20;;
6101;SDS011;3081;50.584;7.032;2024-01-25T12:43:31;29.57;;;6.87;;
6101;SDS011;3081;50.584;7.032;2024-01-25T12:45:59;22.67;;;4.73;;
6101;SDS011;3081;50.584;7.032;2024-01-25T12:48:26;30.57;;;6.07;;
6101;SDS011;3081;50.584;7.032;2024-01-25T12:50:53;25.50;;;5.67;;
6101;SDS011;3081;50.584;7.032;2024-01-25T12:53:20;25.57;;;5.20;;
6101;SDS011;3081;50.584;7.032;2024-01-25T12:55:47;28.47;;;6.77;;
6101;SDS011;3081;50.584;7.032;2024-01-25T12:58:14;20.53;;;5.47;;
6101;SDS011;3081;50.584;7.032;2024-01-25T13:00:41;22.13;;;6.03;;
6101;SDS011;3081;50.584;7.032;2024-01-25T13:03:11;36.67;;;6.93;;
6101;SDS011;3081;50.584;7.032;2024-01-25T13:05:38;28.70;;;5.57;;
6101;SDS011;3081;50.584;7.032;2024-01-25T13:08:06;29.90;;;5.40;;
6101;SDS011;3081;50.584;7.032;2024-01-25T13:10:33;22.90;;;5.00;;
6101;SDS011;3081;50.584;7.032;2024-01-25T13:12:59;15.30;;;4.73;;
6101;SDS011;3081;50.584;7.032;2024-01-25T13:15:26;17.70;;;3.60;;
6101;SDS011;3081;50.584;7.032;2024-01-25T13:17:53;21.57;;;4.73;;
6101;SDS011;3081;50.584;7.032;2024-01-25T13:20:22;23.27;;;4.10;;
6101;SDS011;3081;50.584;7.032;2024-01-25T13:22:48;22.23;;;4.77;;
6101;SDS011;3081;50.584;7.032;2024-01-25T13:25:15;30.10;;;5.87;;
6101;SDS011;3081;50.584;7.032;2024-01-25T13:27:42;21.27;;;3.93;;
6101;SDS011;3081;50.584;7.032;2024-01-25T13:30:09;25.80;;;4.57;;
6101;SDS011;3081;50.584;7.032;2024-01-25T13:32:38;29.60;;;5.83;;
6101;SDS011;3081;50.584;7.032;2024-01-25T13:35:05;26.17;;;4.60;;
6101;SDS011;3081;50.584;7.032;2024-01-25T13:37:34;32.13;;;5.37;;
6101;SDS011;3081;50.584;7.032;2024-01-25T13:40:01;18.17;;;4.23;;
6101;SDS011;3081;50.584;7.032;2024-01-25T13:42:29;26.33;;;4.10;;
6101;SDS011;3081;50.584;7.032;2024-01-25T13:44:56;24.53;;;5.07;;
6101;SDS011;3081;50.584;7.032;2024-01-25T13:47:22;23.73;;;4.23;;
6101;SDS011;3081;50.584;7.032;2024-01-25T13:49:50;22.77;;;5.00;;
6101;SDS011;3081;50.584;7.032;2024-01-25T13:52:17;23.07;;;4.83;;
6101;SDS011;3081;50.584;7.032;2024-01-25T13:54:46;20.10;;;3.90;;
6101;SDS011;3081;50.584;7.032;2024-01-25T13:57:15;19.27;;;3.83;;
6101;SDS011;3081;50.584;7.032;2024-01-25T13:59:42;17.40;;;3.43;;
6101;SDS011;3081;50.584;7.032;2024-01-25T14:02:09;25.83;;;4.47;;
6101;SDS011;3081;50.584;7.032;2024-01-25T14:04:36;24.17;;;4.00;;
6101;SDS011;3081;50.584;7.032;2024-01-25T14:07:02;17.50;;;3.53;;
6101;SDS011;3081;50.584;7.032;2024-01-25T14:09:29;18.07;;;4.03;;
6101;SDS011;3081;50.584;7.032;2024-01-25T14:11:58;23.67;;;4.60;;
6101;SDS011;3081;50.584;7.032;2024-01-25T14:14:25;29.93;;;5.47;;
6101;SDS011;3081;50.584;7.032;2024-01-25T14:16:51;29.57;;;5.27;;
6101;SDS011;3081;50.584;7.032;2024-01-25T14:19:18;26.57;;;4.77;;
6101;SDS011;3081;50.584;7.032;2024-01-25T14:21:46;29.83;;;4.23;;
6101;SDS011;3081;50.584;7.032;2024-01-25T14:24:14;23.70;;;4.87;;
6101;SDS011;3081;50.584;7.032;2024-01-25T14:26:41;24.73;;;5.50;;
6101;SDS011;3081;50.584;7.032;2024-01-25T14:29:09;37.53;;;6.40;;
6101;SDS011;3081;50.584;7.032;2024-01-25T14:31:36;29.43;;;6.07;;
6101;SDS011;3081;50.584;7.032;2024-01-25T14:34:03;34.40;;;5.70;;
6101;SDS011;3081;50.584;7.032;2024-01-25T14:36:30;29.83;;;5.40;;
6101;SDS011;3081;50.584;7.032;2024-01-25T14:38:56;30.77;;;6.57;;
6101;SDS011;3081;50.584;7.032;2024-01-25T14:41:23;30.30;;;5.40;;
6101;SDS011;3081;50.584;7.032;2024-01-25T14:43:50;30.13;;;5.00;;
6101;SDS011;3081;50.584;7.032;2024-01-25T14:46:18;26.53;;;4.97;;
6101;SDS011;3081;50.584;7.032;2024-01-25T14:48:45;19.77;;;4.67;;
6101;SDS011;3081;50.584;7.032;2024-01-25T14:51:12;20.87;;;4.10;;
6101;SDS011;3081;50.584;7.032;2024-01-25T14:53:39;27.23;;;4.90;;
6101;SDS011;3081;50.584;7.032;2024-01-25T14:56:06;28.17;;;4.63;;
6101;SDS011;3081;50.584;7.032;2024-01-25T14:58:33;31.40;;;5.73;;
6101;SDS011;3081;50.584;7.032;2024-01-25T15:01:00;19.37;;;4.57;;
6101;SDS011;3081;50.584;7.032;2024-01-25T15:03:31;22.63;;;4.73;;
6101;SDS011;3081;50.584;7.032;2024-01-25T15:05:58;21.63;;;4.53;;
6101;SDS011;3081;50.584;7.032;2024-01-25T15:08:25;30.90;;;4.80;;
6101;SDS011;3081;50.584;7.032;2024-01-25T15:10:52;23.63;;;5.03;;
6101;SDS011;3081;50.584;7.032;2024-01-25T15:13:19;43.77;;;11.37;;
6101;SDS011;3081;50.584;7.032;2024-01-25T15:15:46;55.33;;;18.03;;
6101;SDS011;3081;50.584;7.032;2024-01-25T15:18:13;33.17;;;8.87;;